Time;durP1;ratioP1;P1;durP2;ratioP2;P2;SDS_P1;SDS_P2;PMS_P1;PMS_P2;Temp;Humidity;BMP_temperature;BMP_pressure;BME280_temperature;BME280_humidity;BME280_pressure;Samples;Min_cycle;Max_cycle;Signal;HPM_P1;HPM_P2
2021/07/29 00:02:01;;;;;;;16.93;5.03;;;15.40;99.90;;;;;;5056165;28;20166;-69
2021/07/29 00:04:28;;;;;;;4.87;3.60;;;15.40;99.90;;;;;;5055504;28;20169;-65
2021/07/29 00:06:54;;;;;;;4.00;3.70;;;15.30;99.90;;;;;;5055659;28;20166;-67
2021/07/29 00:09:20;;;;;;;4.13;3.73;;;15.30;99.90;;;;;;5055212;28;20482;-66
2021/07/29 00:11:45;;;;;;;4.83;3.77;;;15.30;99.90;;;;;;5056015;28;20408;-69
2021/07/29 00:14:11;;;;;;;5.90;4.60;;;15.30;99.90;;;;;;5055479;28;20701;-65
2021/07/29 00:16:45;;;;;;;5.40;4.00;;;15.20;99.90;;;;;;5055879;28;20163;-67
2021/07/29 00:19:11;;;;;;;4.13;3.70;;;15.10;99.90;;;;;;5055551;28;20193;-68
2021/07/29 00:21:39;;;;;;;9.33;3.80;;;15.10;99.90;;;;;;5055451;28;20487;-66
2021/07/29 00:24:05;;;;;;;6.57;3.30;;;15.10;99.90;;;;;;5054929;28;20186;-68
2021/07/29 00:26:31;;;;;;;3.40;3.13;;;15.00;99.90;;;;;;5055577;28;20475;-65
2021/07/29 00:28:57;;;;;;;5.80;4.17;;;14.90;99.90;;;;;;5055382;28;20879;-69
2021/07/29 00:31:34;;;;;;;5.30;4.00;;;14.90;99.90;;;;;;5055705;28;20412;-67
2021/07/29 00:34:00;;;;;;;4.43;4.03;;;14.90;99.90;;;;;;5055240;28;20170;-68
2021/07/29 00:36:26;;;;;;;6.60;4.00;;;14.90;99.90;;;;;;5055208;28;20428;-68
2021/07/29 00:38:52;;;;;;;5.87;4.07;;;14.90;99.90;;;;;;5055202;28;20452;-67
2021/07/29 00:41:18;;;;;;;3.90;3.40;;;14.80;99.90;;;;;;5055389;28;20958;-66
2021/07/29 00:43:44;;;;;;;6.23;4.33;;;14.80;99.90;;;;;;5054450;28;20411;-68
2021/07/29 00:46:12;;;;;;;5.47;3.17;;;14.80;99.90;;;;;;5054963;28;20402;-66
2021/07/29 00:48:39;;;;;;;2.80;2.60;;;14.90;99.90;;;;;;5054402;28;20459;-66
2021/07/29 00:51:06;;;;;;;3.50;3.20;;;14.80;99.90;;;;;;5054715;28;20404;-67
2021/07/29 00:53:32;;;;;;;3.43;3.13;;;14.80;99.90;;;;;;5054733;28;20408;-68
2021/07/29 00:55:57;;;;;;;3.67;2.97;;;14.70;99.90;;;;;;5054792;28;20397;-66
2021/07/29 00:58:25;;;;;;;3.80;3.50;;;14.70;99.90;;;;;;5055096;28;20196;-67
2021/07/29 01:00:50;;;;;;;2.93;2.60;;;14.60;99.90;;;;;;5054436;28;20190;-67
2021/07/29 01:03:16;;;;;;;4.00;3.00;;;14.60;99.90;;;;;;5054425;28;20410;-69
2021/07/29 01:05:42;;;;;;;3.43;2.57;;;14.60;99.90;;;;;;5054514;28;20654;-67
2021/07/29 01:08:07;;;;;;;4.07;3.00;;;14.60;99.90;;;;;;5054256;28;20189;-68
2021/07/29 01:10:36;;;;;;;8.30;4.30;;;14.60;99.90;;;;;;5054214;28;20186;-65
2021/07/29 01:13:01;;;;;;;4.70;3.50;;;14.50;99.90;;;;;;5054227;28;20164;-68
2021/07/29 01:15:27;;;;;;;5.00;3.27;;;14.50;99.90;;;;;;5054114;28;20408;-68
2021/07/29 01:18:00;;;;;;;3.57;3.20;;;14.50;99.90;;;;;;5053141;28;20265;-66
2021/07/29 01:20:26;;;;;;;3.60;2.80;;;14.50;99.90;;;;;;5054591;28;20447;-66
2021/07/29 01:22:52;;;;;;;4.03;3.60;;;14.50;99.90;;;;;;5054576;28;20397;-68
2021/07/29 01:25:18;;;;;;;3.93;2.40;;;14.40;99.90;;;;;;5053918;28;20400;-68
2021/07/29 01:27:43;;;;;;;3.97;2.60;;;14.50;99.90;;;;;;5054150;28;20210;-66
2021/07/29 01:30:10;;;;;;;3.97;3.30;;;14.50;99.90;;;;;;5054010;28;20186;-68
2021/07/29 01:32:36;;;;;;;3.37;3.10;;;14.40;99.90;;;;;;5054075;28;20177;-67
2021/07/29 01:35:03;;;;;;;3.03;2.67;;;14.40;99.90;;;;;;5054037;28;20905;-68
2021/07/29 01:37:28;;;;;;;4.23;3.40;;;14.50;99.90;;;;;;5053841;28;20396;-69
2021/07/29 01:39:54;;;;;;;5.73;3.17;;;14.50;99.90;;;;;;5053787;28;20524;-68
2021/07/29 01:42:20;;;;;;;5.47;4.57;;;14.40;99.90;;;;;;5053604;28;20224;-65
2021/07/29 01:44:45;;;;;;;7.07;3.90;;;14.40;99.90;;;;;;5053718;28;20176;-68
2021/07/29 01:47:11;;;;;;;6.27;3.13;;;14.40;99.90;;;;;;5054215;28;20173;-68
2021/07/29 01:49:37;;;;;;;3.97;3.60;;;14.40;99.90;;;;;;5052227;28;20213;-67
2021/07/29 01:52:03;;;;;;;3.40;2.53;;;14.40;99.90;;;;;;5052830;28;20616;-66
2021/07/29 01:54:28;;;;;;;3.93;2.83;;;14.50;99.90;;;;;;5053524;28;20170;-66
2021/07/29 01:56:54;;;;;;;4.10;2.90;;;14.60;99.90;;;;;;5053463;28;20397;-66
2021/07/29 01:59:20;;;;;;;4.53;4.00;;;14.60;99.90;;;;;;5052333;28;20252;-66
2021/07/29 02:01:45;;;;;;;5.00;3.70;;;14.80;99.90;;;;;;5053678;28;20170;-67
2021/07/29 02:04:11;;;;;;;4.13;3.73;;;14.80;99.90;;;;;;5053249;28;20228;-67
2021/07/29 02:06:37;;;;;;;3.67;3.37;;;14.80;99.90;;;;;;5053241;28;20563;-68
2021/07/29 02:09:04;;;;;;;3.73;3.10;;;14.80;99.90;;;;;;5053359;28;20636;-68
2021/07/29 02:11:34;;;;;;;3.70;2.80;;;14.80;99.90;;;;;;5053516;28;20404;-67
2021/07/29 02:14:00;;;;;;;3.37;2.90;;;14.80;99.90;;;;;;5053082;28;20491;-69
2021/07/29 02:16:26;;;;;;;3.27;2.83;;;14.80;99.90;;;;;;5053554;28;20428;-65
2021/07/29 02:18:52;;;;;;;5.37;3.30;;;14.80;99.90;;;;;;5053588;28;20197;-68
2021/07/29 02:21:18;;;;;;;3.97;3.47;;;14.80;99.90;;;;;;5053785;28;20404;-69
2021/07/29 02:23:45;;;;;;;6.30;3.30;;;14.80;99.90;;;;;;5053521;28;20902;-68
2021/07/29 02:26:11;;;;;;;3.00;2.60;;;14.80;99.90;;;;;;5053257;28;20224;-69
2021/07/29 02:28:37;;;;;;;3.97;3.60;;;14.80;99.90;;;;;;5053198;28;20444;-68
2021/07/29 02:31:03;;;;;;;2.87;2.60;;;14.90;99.90;;;;;;5053718;28;20469;-68
2021/07/29 02:33:28;;;;;;;2.97;2.57;;;14.90;99.90;;;;;;5053296;28;20178;-65
2021/07/29 02:35:54;;;;;;;3.70;3.20;;;14.90;99.90;;;;;;5053618;28;20488;-66
2021/07/29 02:38:20;;;;;;;4.23;3.80;;;15.00;99.90;;;;;;5053642;28;20174;-68
2021/07/29 02:40:46;;;;;;;3.53;2.60;;;15.00;99.90;;;;;;5053068;28;20656;-66
2021/07/29 02:43:11;;;;;;;2.90;2.60;;;15.00;99.90;;;;;;5053066;28;20224;-68
2021/07/29 02:45:37;;;;;;;3.83;3.10;;;15.10;99.90;;;;;;5053354;28;20170;-68
2021/07/29 02:48:03;;;;;;;3.97;3.13;;;15.10;99.90;;;;;;5053371;28;20182;-67
2021/07/29 02:50:28;;;;;;;3.50;3.20;;;15.10;99.90;;;;;;5053444;28;20252;-66
2021/07/29 02:52:54;;;;;;;3.60;2.90;;;15.10;99.90;;;;;;5053561;28;20166;-68
2021/07/29 02:55:20;;;;;;;2.90;2.70;;;15.00;99.90;;;;;;5052849;28;20166;-67
2021/07/29 02:57:46;;;;;;;3.40;3.10;;;15.00;99.90;;;;;;5053092;28;20177;-67
2021/07/29 03:00:12;;;;;;;7.20;3.77;;;15.00;99.90;;;;;;5053146;28;20920;-66
2021/07/29 03:02:38;;;;;;;4.30;2.80;;;15.00;99.90;;;;;;5053209;28;20174;-67
2021/07/29 03:05:04;;;;;;;5.00;3.80;;;15.00;99.90;;;;;;5051517;28;20412;-67
2021/07/29 03:07:31;;;;;;;6.23;3.30;;;14.90;99.90;;;;;;5053422;28;20512;-66
2021/07/29 03:09:57;;;;;;;5.33;3.23;;;14.90;99.90;;;;;;5053683;28;20828;-68
2021/07/29 03:12:23;;;;;;;5.50;2.57;;;15.00;99.90;;;;;;5052845;28;20538;-67
2021/07/29 03:14:48;;;;;;;6.63;3.07;;;15.00;99.90;;;;;;5052908;28;20201;-66
2021/07/29 03:17:14;;;;;;;4.10;3.37;;;15.00;99.90;;;;;;5053254;28;20173;-67
2021/07/29 03:19:39;;;;;;;3.37;2.90;;;15.00;99.90;;;;;;5056592;28;20189;-67
2021/07/29 03:22:05;;;;;;;5.33;3.20;;;15.00;99.90;;;;;;5056994;28;20503;-69
2021/07/29 03:24:32;;;;;;;3.70;3.37;;;15.10;99.90;;;;;;5056167;28;20176;-66
2021/07/29 03:26:58;;;;;;;6.47;3.57;;;15.10;99.90;;;;;;5056440;28;20174;-68
2021/07/29 03:29:30;;;;;;;5.70;3.97;;;15.20;99.90;;;;;;5056305;28;20981;-67
2021/07/29 03:31:55;;;;;;;5.13;3.43;;;15.30;99.90;;;;;;5056724;28;20155;-67
2021/07/29 03:34:21;;;;;;;4.07;3.40;;;15.40;99.90;;;;;;5056034;28;20825;-67
2021/07/29 03:36:47;;;;;;;3.90;2.77;;;15.40;99.90;;;;;;5055457;28;20169;-68
2021/07/29 03:39:13;;;;;;;7.00;2.90;;;15.40;99.90;;;;;;5056073;28;20216;-68
2021/07/29 03:41:39;;;;;;;3.87;3.33;;;15.40;99.90;;;;;;5056493;28;20408;-66
2021/07/29 03:44:05;;;;;;;4.57;3.73;;;15.50;99.90;;;;;;5055704;28;20478;-67
2021/07/29 03:46:31;;;;;;;5.20;4.50;;;15.50;99.90;;;;;;5056333;28;20394;-68
2021/07/29 03:48:57;;;;;;;3.93;3.57;;;15.50;99.90;;;;;;5056158;28;20206;-67
2021/07/29 03:51:24;;;;;;;4.13;3.67;;;15.50;99.90;;;;;;5056514;28;20167;-66
2021/07/29 03:53:50;;;;;;;3.70;3.30;;;15.50;99.90;;;;;;5055475;28;20397;-68
2021/07/29 03:56:16;;;;;;;7.93;3.90;;;15.50;99.90;;;;;;5055918;28;20731;-68
2021/07/29 03:58:41;;;;;;;3.30;3.00;;;15.60;99.90;;;;;;5055889;28;20895;-68
2021/07/29 04:01:09;;;;;;;5.20;4.20;;;15.70;99.90;;;;;;5056058;28;20402;-68
2021/07/29 04:03:35;;;;;;;6.50;4.67;;;15.70;99.90;;;;;;5055845;28;20221;-69
2021/07/29 04:06:01;;;;;;;7.50;3.37;;;15.70;99.90;;;;;;5055524;28;20403;-66
2021/07/29 04:08:27;;;;;;;6.13;5.03;;;15.70;99.90;;;;;;5055193;28;20456;-67
2021/07/29 04:10:53;;;;;;;4.73;3.17;;;15.70;99.90;;;;;;5055641;28;20420;-66
2021/07/29 04:13:19;;;;;;;3.87;3.47;;;15.70;99.90;;;;;;5055569;28;20224;-66
2021/07/29 04:15:45;;;;;;;3.67;3.00;;;15.80;99.90;;;;;;5055799;28;20875;-67
2021/07/29 04:18:10;;;;;;;4.57;3.63;;;15.80;99.90;;;;;;5055681;28;20174;-69
2021/07/29 04:20:36;;;;;;;3.67;3.30;;;15.90;99.90;;;;;;5055265;28;20194;-68
2021/07/29 04:23:02;;;;;;;5.57;3.87;;;15.90;99.90;;;;;;5055364;28;20224;-68
2021/07/29 04:25:27;;;;;;;4.17;3.50;;;16.00;99.90;;;;;;5054878;28;20183;-67
2021/07/29 04:27:53;;;;;;;4.63;3.50;;;16.00;99.90;;;;;;5055098;28;20193;-66
2021/07/29 04:30:19;;;;;;;5.10;3.67;;;16.10;99.90;;;;;;5054427;28;20539;-67
2021/07/29 04:32:44;;;;;;;3.23;2.80;;;16.20;99.90;;;;;;5055712;28;20170;-67
2021/07/29 04:35:10;;;;;;;3.37;3.00;;;16.30;99.90;;;;;;5054958;28;20170;-68
2021/07/29 04:37:36;;;;;;;3.60;3.10;;;16.30;99.90;;;;;;5055076;28;20547;-65
2021/07/29 04:40:02;;;;;;;3.63;3.30;;;16.40;99.90;;;;;;5055132;28;20188;-67
2021/07/29 04:42:28;;;;;;;5.83;2.90;;;16.40;99.90;;;;;;5054996;28;20178;-66
2021/07/29 04:44:54;;;;;;;5.10;4.60;;;16.50;99.90;;;;;;5054733;28;20453;-67
2021/07/29 04:47:20;;;;;;;3.73;3.30;;;16.60;99.90;;;;;;5055323;28;20181;-67
2021/07/29 04:49:45;;;;;;;5.93;3.80;;;16.70;99.90;;;;;;5054683;28;20830;-67
2021/07/29 04:52:11;;;;;;;4.10;3.77;;;16.80;99.90;;;;;;5054783;28;20446;-69
2021/07/29 04:54:36;;;;;;;2.77;2.57;;;16.90;99.90;;;;;;5054660;28;20167;-68
2021/07/29 04:57:02;;;;;;;6.50;3.40;;;17.00;99.90;;;;;;5054545;28;20169;-66
2021/07/29 04:59:28;;;;;;;3.50;3.00;;;17.10;99.90;;;;;;5054574;28;20186;-69
2021/07/29 05:01:53;;;;;;;6.00;5.40;;;17.20;99.90;;;;;;5054393;28;20744;-68
2021/07/29 05:04:19;;;;;;;3.80;3.40;;;17.30;99.90;;;;;;5054496;28;20205;-68
2021/07/29 05:06:45;;;;;;;3.60;3.17;;;17.40;99.90;;;;;;5054460;28;20192;-68
2021/07/29 05:09:10;;;;;;;3.47;3.17;;;17.40;99.90;;;;;;5054335;28;20703;-69
2021/07/29 05:11:36;;;;;;;4.40;2.90;;;17.50;99.90;;;;;;5053814;28;20169;-66
2021/07/29 05:14:03;;;;;;;4.63;3.17;;;17.60;99.90;;;;;;5054282;28;20245;-68
2021/07/29 05:16:29;;;;;;;4.37;2.80;;;17.60;99.90;;;;;;5054704;28;20401;-65
2021/07/29 05:18:54;;;;;;;3.23;2.90;;;17.70;99.90;;;;;;5054091;28;20506;-65
2021/07/29 05:21:20;;;;;;;4.93;4.10;;;17.80;99.90;;;;;;5054277;28;20174;-66
2021/07/29 05:23:45;;;;;;;5.00;3.40;;;17.90;99.90;;;;;;5053968;28;20182;-67
2021/07/29 05:26:15;;;;;;;2.53;2.33;;;18.00;99.90;;;;;;5054404;28;20170;-66
2021/07/29 05:28:41;;;;;;;4.20;2.70;;;18.00;99.90;;;;;;5054440;28;20239;-68
2021/07/29 05:31:10;;;;;;;3.50;3.20;;;18.10;99.90;;;;;;5054515;28;20405;-69
2021/07/29 05:33:37;;;;;;;4.23;3.10;;;18.20;99.90;;;;;;5053670;28;20169;-67
2021/07/29 05:36:03;;;;;;;3.27;2.97;;;18.20;99.90;;;;;;5053969;28;20397;-65
2021/07/29 05:38:28;;;;;;;3.93;3.47;;;18.30;99.90;;;;;;5054049;28;20466;-67
2021/07/29 05:40:58;;;;;;;4.97;2.10;;;18.50;99.90;;;;;;5053903;28;20761;-66
2021/07/29 05:43:25;;;;;;;2.27;2.07;;;18.80;99.90;;;;;;5053681;28;20182;-69
2021/07/29 05:45:51;;;;;;;3.90;2.40;;;19.00;99.90;;;;;;5054263;28;20403;-68
2021/07/29 05:48:17;;;;;;;4.70;2.43;;;19.20;99.40;;;;;;5053641;28;20449;-66
2021/07/29 05:50:42;;;;;;;2.77;2.57;;;19.30;98.60;;;;;;5053750;28;20641;-67
2021/07/29 05:53:08;;;;;;;2.80;2.60;;;19.50;98.90;;;;;;5053860;28;20249;-67
2021/07/29 05:55:34;;;;;;;3.60;3.30;;;19.60;98.80;;;;;;5053826;28;20171;-66
2021/07/29 05:58:00;;;;;;;3.43;3.13;;;19.80;99.10;;;;;;5054065;28;20171;-69
2021/07/29 06:00:27;;;;;;;3.00;2.70;;;19.80;99.10;;;;;;5053443;28;20430;-68
2021/07/29 06:02:53;;;;;;;4.20;3.00;;;19.80;97.70;;;;;;5053534;28;20476;-68
2021/07/29 06:05:19;;;;;;;2.83;2.63;;;20.00;98.40;;;;;;5053450;28;20888;-68
2021/07/29 06:07:45;;;;;;;3.00;2.40;;;20.10;98.20;;;;;;5053614;28;20412;-66
2021/07/29 06:10:11;;;;;;;5.80;4.13;;;20.10;96.20;;;;;;5053134;28;20618;-67
2021/07/29 06:12:37;;;;;;;3.77;2.67;;;20.20;96.40;;;;;;5052333;28;20641;-65
2021/07/29 06:15:03;;;;;;;2.90;2.60;;;20.10;95.70;;;;;;5053062;28;20403;-68
2021/07/29 06:17:32;;;;;;;7.30;3.83;;;20.00;97.30;;;;;;5053653;28;20414;-69
2021/07/29 06:20:04;;;;;;;8.53;2.33;;;19.90;96.70;;;;;;5053409;28;20428;-69
2021/07/29 06:22:31;;;;;;;4.70;2.37;;;19.90;96.70;;;;;;5053867;28;20407;-68
2021/07/29 06:24:58;;;;;;;3.73;2.33;;;20.10;97.60;;;;;;5053102;28;20402;-68
2021/07/29 06:27:23;;;;;;;3.50;2.47;;;20.10;96.00;;;;;;5053873;28;20402;-67
2021/07/29 06:29:49;;;;;;;4.87;2.63;;;20.10;95.60;;;;;;5053462;28;20523;-67
2021/07/29 06:32:16;;;;;;;3.00;2.77;;;19.90;95.50;;;;;;5053220;28;20578;-66
2021/07/29 06:34:41;;;;;;;2.77;2.53;;;19.80;95.20;;;;;;5052999;28;20410;-68
2021/07/29 06:37:07;;;;;;;2.07;1.97;;;19.70;96.50;;;;;;5053414;28;20168;-67
2021/07/29 06:39:33;;;;;;;2.63;2.43;;;19.80;97.40;;;;;;5053560;28;20190;-68
2021/07/29 06:41:58;;;;;;;3.20;2.30;;;19.90;97.00;;;;;;5053732;28;20182;-68
2021/07/29 06:44:24;;;;;;;3.07;2.53;;;19.90;97.50;;;;;;5052946;28;20185;-68
2021/07/29 06:46:50;;;;;;;2.90;2.50;;;20.20;96.20;;;;;;5053198;28;20175;-68
2021/07/29 06:49:16;;;;;;;2.70;2.33;;;20.40;96.20;;;;;;5052900;28;20550;-68
2021/07/29 06:51:42;;;;;;;3.57;2.20;;;20.90;95.50;;;;;;5053419;28;20269;-70
2021/07/29 06:54:07;;;;;;;2.47;2.07;;;21.80;93.60;;;;;;5055799;28;20453;-67
2021/07/29 06:56:33;;;;;;;3.00;1.87;;;23.00;92.10;;;;;;5057529;28;20288;-69
2021/07/29 06:58:59;;;;;;;1.83;1.73;;;24.60;90.10;;;;;;5056804;28;20236;-69
2021/07/29 07:01:25;;;;;;;5.00;2.73;;;25.50;83.60;;;;;;5056625;28;20437;-69
2021/07/29 07:03:52;;;;;;;4.77;2.90;;;26.40;79.70;;;;;;5056629;28;20173;-66
2021/07/29 07:06:17;;;;;;;3.10;2.63;;;26.20;76.60;;;;;;5056655;28;20881;-70
2021/07/29 07:08:43;;;;;;;3.37;2.63;;;25.70;78.10;;;;;;5056618;28;20534;-70
2021/07/29 07:11:18;;;;;;;2.23;2.03;;;24.90;80.60;;;;;;5056054;28;20173;-68
2021/07/29 07:13:46;;;;;;;5.50;2.80;;;23.90;81.80;;;;;;5056510;28;20515;-68
2021/07/29 07:16:13;;;;;;;3.17;2.20;;;23.10;83.50;;;;;;5056740;28;20785;-67
2021/07/29 07:18:39;;;;;;;2.93;2.70;;;22.70;87.70;;;;;;5056711;28;20434;-68
2021/07/29 07:21:09;;;;;;;3.20;2.50;;;22.30;90.00;;;;;;5056975;28;20400;-66
2021/07/29 07:23:36;;;;;;;3.73;2.17;;;22.20;90.30;;;;;;5056491;28;20869;-68
2021/07/29 07:26:02;;;;;;;1.90;1.70;;;22.10;91.00;;;;;;5056515;28;20828;-67
2021/07/29 07:28:28;;;;;;;3.20;2.90;;;22.00;90.60;;;;;;5056121;28;20456;-66
2021/07/29 07:30:53;;;;;;;7.27;3.73;;;22.00;88.60;;;;;;5056454;28;20421;-68
2021/07/29 07:33:19;;;;;;;3.67;2.73;;;22.00;90.00;;;;;;5056338;28;20601;-67
2021/07/29 07:35:44;;;;;;;2.43;2.10;;;21.90;87.60;;;;;;5056668;28;20216;-66
2021/07/29 07:38:10;;;;;;;3.00;2.40;;;21.80;88.70;;;;;;5056535;28;20170;-66
2021/07/29 07:40:37;;;;;;;3.27;2.23;;;22.50;90.50;;;;;;5056034;28;20205;-69
2021/07/29 07:43:03;;;;;;;4.43;2.77;;;24.00;87.00;;;;;;5056191;28;20474;-69
2021/07/29 07:45:29;;;;;;;3.17;2.57;;;25.50;79.00;;;;;;5056059;28;20408;-69
2021/07/29 07:47:54;;;;;;;4.10;2.13;;;25.90;76.80;;;;;;5056205;28;20555;-66
2021/07/29 07:50:20;;;;;;;2.57;2.37;;;25.80;78.10;;;;;;5056233;28;20519;-69
2021/07/29 07:52:46;;;;;;;3.90;2.67;;;25.50;79.70;;;;;;5055634;28;20182;-68
2021/07/29 07:55:11;;;;;;;4.60;2.67;;;25.20;79.70;;;;;;5054908;28;20172;-66
2021/07/29 07:57:37;;;;;;;4.47;3.30;;;24.90;77.30;;;;;;5055433;28;20262;-67
2021/07/29 08:00:03;;;;;;;4.80;3.20;;;24.60;79.80;;;;;;5055242;28;20273;-68
2021/07/29 08:02:29;;;;;;;3.27;2.97;;;24.00;79.50;;;;;;5055933;28;20256;-65
2021/07/29 08:04:54;;;;;;;3.90;2.60;;;23.10;79.70;;;;;;5054418;28;20499;-67
2021/07/29 08:07:20;;;;;;;6.60;3.53;;;22.40;84.10;;;;;;5055972;28;20673;-66
2021/07/29 08:09:46;;;;;;;4.87;3.50;;;22.20;85.40;;;;;;5055365;28;20501;-67
2021/07/29 08:12:12;;;;;;;3.37;2.97;;;21.80;87.70;;;;;;5055732;28;20486;-67
2021/07/29 08:14:38;;;;;;;2.80;2.60;;;21.50;88.10;;;;;;5055483;28;20507;-68
2021/07/29 08:17:05;;;;;;;4.03;2.70;;;22.00;87.80;;;;;;5055813;28;20169;-65
2021/07/29 08:19:32;;;;;;;4.33;2.90;;;22.40;86.90;;;;;;5055833;28;20223;-69
2021/07/29 08:21:58;;;;;;;2.70;2.50;;;22.40;86.00;;;;;;5055258;28;20418;-67
2021/07/29 08:24:24;;;;;;;3.50;2.60;;;23.30;83.80;;;;;;5054941;28;20489;-66
2021/07/29 08:26:50;;;;;;;2.60;2.40;;;23.60;82.80;;;;;;5055211;28;20503;-68
2021/07/29 08:29:16;;;;;;;2.93;2.63;;;24.40;81.70;;;;;;5055454;28;20551;-67
2021/07/29 08:31:42;;;;;;;3.00;2.70;;;25.10;79.60;;;;;;5055565;28;20386;-65
2021/07/29 08:34:08;;;;;;;2.57;2.37;;;25.60;75.00;;;;;;5055190;28;20166;-67
2021/07/29 08:36:33;;;;;;;2.33;2.10;;;25.50;74.90;;;;;;5053216;28;20647;-68
2021/07/29 08:38:59;;;;;;;4.50;2.07;;;25.50;74.80;;;;;;5054891;28;20285;-66
2021/07/29 08:41:25;;;;;;;2.60;2.40;;;25.80;74.70;;;;;;5055349;28;20170;-66
2021/07/29 08:43:51;;;;;;;3.40;2.37;;;25.70;73.70;;;;;;5054806;28;20174;-66
2021/07/29 08:46:20;;;;;;;2.77;2.30;;;25.30;75.70;;;;;;5055050;28;20166;-68
2021/07/29 08:48:50;;;;;;;5.07;2.63;;;24.60;76.90;;;;;;5055202;28;20633;-67
2021/07/29 08:51:17;;;;;;;2.87;2.40;;;23.20;79.00;;;;;;5055388;28;20409;-66
2021/07/29 08:53:43;;;;;;;2.77;2.40;;;22.80;82.90;;;;;;5054515;28;20793;-68
2021/07/29 08:56:12;;;;;;;3.03;2.80;;;22.70;86.50;;;;;;5054875;28;20466;-66
2021/07/29 08:58:38;;;;;;;3.47;2.60;;;22.70;85.40;;;;;;5054870;28;20498;-67
2021/07/29 09:01:09;;;;;;;3.50;3.20;;;22.80;85.10;;;;;;5055204;28;20419;-68
2021/07/29 09:03:40;;;;;;;3.17;2.77;;;22.80;85.30;;;;;;5053574;28;20175;-69
2021/07/29 09:06:08;;;;;;;3.13;2.83;;;22.60;85.00;;;;;;5054174;28;20414;-67
2021/07/29 09:08:43;;;;;;;4.90;2.77;;;22.10;85.30;;;;;;5054074;28;20520;-69
2021/07/29 09:11:37;;;;;;;5.23;2.77;;;22.30;87.40;;;;;;5054720;28;20722;-67
2021/07/29 09:14:23;;;;;;;3.90;3.50;;;22.60;86.50;;;;;;5054533;28;20485;-68
2021/07/29 09:17:03;;;;;;;4.07;2.90;;;23.20;86.30;;;;;;5054198;28;20432;-67
2021/07/29 09:19:53;;;;;;;4.33;2.40;;;25.00;85.60;;;;;;5052893;28;20407;-67
2021/07/29 09:22:21;;;;;;;2.40;2.20;;;27.50;76.20;;;;;;5054436;28;20404;-67
2021/07/29 09:25:10;;;;;;;2.60;2.40;;;29.90;67.80;;;;;;5053931;28;20409;-66
2021/07/29 09:27:38;;;;;;;3.93;2.40;;;31.50;60.00;;;;;;5054020;28;20427;-68
2021/07/29 09:30:15;;;;;;;2.60;2.13;;;32.40;55.40;;;;;;5054332;28;20525;-67
2021/07/29 09:33:04;;;;;;;2.50;2.30;;;32.90;54.40;;;;;;5054391;28;20396;-67
2021/07/29 09:35:30;;;;;;;3.23;2.90;;;33.80;50.80;;;;;;5053929;28;20436;-67
2021/07/29 09:37:56;;;;;;;2.47;2.20;;;33.80;47.70;;;;;;5054081;28;20886;-67
2021/07/29 09:40:22;;;;;;;3.80;2.80;;;33.40;51.10;;;;;;5054111;28;20503;-67
2021/07/29 09:43:08;;;;;;;2.83;2.63;;;33.10;50.40;;;;;;5054304;28;20882;-68
2021/07/29 09:45:33;;;;;;;3.27;2.93;;;32.90;50.70;;;;;;5053802;28;20701;-68
2021/07/29 09:48:00;;;;;;;2.77;2.60;;;33.10;51.00;;;;;;5051985;28;20408;-68
2021/07/29 09:50:26;;;;;;;4.60;2.43;;;33.40;49.00;;;;;;5053857;28;20425;-69
2021/07/29 09:52:54;;;;;;;4.30;2.60;;;33.30;48.10;;;;;;5052998;28;20409;-67
2021/07/29 09:55:22;;;;;;;2.47;2.20;;;32.60;49.00;;;;;;5053547;28;20198;-68
2021/07/29 09:57:48;;;;;;;2.83;2.50;;;32.50;49.00;;;;;;5052527;28;20404;-69
2021/07/29 10:00:14;;;;;;;3.70;2.60;;;33.20;49.10;;;;;;5052046;28;20945;-69
2021/07/29 10:02:42;;;;;;;3.60;3.37;;;33.40;48.60;;;;;;5053240;28;20170;-68
2021/07/29 10:05:09;;;;;;;2.87;2.57;;;32.90;48.30;;;;;;5052931;28;20495;-69
2021/07/29 10:07:39;;;;;;;3.20;2.67;;;31.70;49.40;;;;;;5053829;28;20404;-66
2021/07/29 10:10:07;;;;;;;3.20;2.90;;;30.70;49.70;;;;;;5053155;28;20800;-67
2021/07/29 10:12:33;;;;;;;2.40;2.20;;;30.00;54.20;;;;;;5053528;28;20401;-69
2021/07/29 10:15:00;;;;;;;7.10;4.30;;;29.00;52.00;;;;;;5053103;28;20476;-68
2021/07/29 10:17:35;;;;;;;3.90;3.17;;;28.40;52.40;;;;;;5053545;28;20423;-68
2021/07/29 10:20:14;;;;;;;3.33;2.80;;;28.80;57.40;;;;;;5053630;28;20428;-68
2021/07/29 10:22:40;;;;;;;4.37;3.10;;;29.40;53.50;;;;;;5053536;28;20772;-69
2021/07/29 10:25:06;;;;;;;3.07;2.73;;;29.70;55.50;;;;;;5053062;28;20820;-68
2021/07/29 10:27:32;;;;;;;3.17;2.90;;;30.40;53.70;;;;;;5053734;28;20408;-68
2021/07/29 10:30:18;;;;;;;4.30;2.90;;;31.60;53.30;;;;;;5057851;28;20505;-68
2021/07/29 10:32:51;;;;;;;3.73;3.37;;;31.70;50.10;;;;;;5047032;28;20411;-67
2021/07/29 10:35:31;;;;;;;2.53;2.33;;;31.50;51.10;;;;;;5057289;28;20404;-68
2021/07/29 10:38:00;;;;;;;2.93;2.67;;;31.10;49.90;;;;;;5057606;28;20401;-67
2021/07/29 10:40:43;;;;;;;3.90;3.40;;;30.10;49.30;;;;;;5057340;28;20425;-67
2021/07/29 10:43:23;;;;;;;3.10;2.80;;;29.60;51.80;;;;;;5057536;28;20733;-66
2021/07/29 10:45:53;;;;;;;4.80;3.13;;;29.90;51.00;;;;;;5057700;28;20809;-68
2021/07/29 10:48:40;;;;;;;2.90;2.47;;;30.30;51.40;;;;;;5057082;28;20448;-67
2021/07/29 10:51:22;;;;;;;3.07;2.43;;;30.10;52.50;;;;;;5057336;28;20921;-67
2021/07/29 10:53:53;;;;;;;2.50;2.30;;;30.00;54.10;;;;;;5057150;28;20396;-68
2021/07/29 10:56:20;;;;;;;3.03;2.57;;;30.50;50.60;;;;;;5057176;28;20399;-68
2021/07/29 10:58:46;;;;;;;2.67;2.10;;;30.50;52.60;;;;;;5056897;28;20499;-68
2021/07/29 11:01:13;;;;;;;3.33;3.00;;;30.00;51.60;;;;;;5057118;28;20412;-67
2021/07/29 11:03:49;;;;;;;3.90;3.40;;;29.40;53.30;;;;;;5056966;28;20161;-67
2021/07/29 11:06:54;;;;;;;2.60;2.40;;;29.10;57.50;;;;;;5057248;28;20799;-68
2021/07/29 11:09:27;;;;;;;3.30;3.00;;;28.60;53.70;;;;;;5056531;28;20463;-68
2021/07/29 11:11:54;;;;;;;3.17;2.97;;;27.90;56.80;;;;;;5057001;28;20377;-69
2021/07/29 11:14:30;;;;;;;3.67;3.30;;;27.50;58.50;;;;;;5056481;28;20466;-67
2021/07/29 11:16:58;;;;;;;4.63;3.23;;;27.20;62.00;;;;;;5057153;28;20424;-67
2021/07/29 11:19:25;;;;;;;3.07;2.40;;;27.00;61.00;;;;;;5056381;28;20743;-69
2021/07/29 11:22:05;;;;;;;5.87;2.90;;;26.80;58.20;;;;;;5056548;28;20479;-67
2021/07/29 11:24:32;;;;;;;3.27;3.00;;;26.60;60.50;;;;;;5056164;28;20448;-67
2021/07/29 11:26:58;;;;;;;3.07;2.77;;;26.70;61.30;;;;;;5056303;28;20384;-68
2021/07/29 11:29:24;;;;;;;3.10;2.80;;;26.60;62.20;;;;;;5056325;28;20499;-69
2021/07/29 11:31:54;;;;;;;4.10;2.90;;;26.40;58.90;;;;;;5056223;28;20404;-68
2021/07/29 11:34:31;;;;;;;3.77;3.47;;;26.40;60.90;;;;;;5056038;28;20162;-67
2021/07/29 11:36:57;;;;;;;3.10;2.50;;;26.30;61.50;;;;;;5056505;28;20408;-67
2021/07/29 11:39:27;;;;;;;5.40;3.50;;;26.30;58.60;;;;;;5056433;28;20432;-67
2021/07/29 11:41:56;;;;;;;3.20;2.90;;;26.10;59.10;;;;;;5056712;28;20383;-68
2021/07/29 11:44:23;;;;;;;4.00;2.97;;;26.00;59.70;;;;;;5055842;28;20483;-68
2021/07/29 11:47:06;;;;;;;2.83;2.63;;;25.60;61.00;;;;;;5056082;28;20790;-67
2021/07/29 11:49:48;;;;;;;3.17;2.87;;;25.20;62.00;;;;;;5055701;28;20456;-67
2021/07/29 11:52:14;;;;;;;3.63;3.10;;;25.00;63.90;;;;;;5055546;28;20814;-67
2021/07/29 11:54:40;;;;;;;3.77;3.10;;;25.20;64.30;;;;;;5055350;28;20708;-67
2021/07/29 11:57:06;;;;;;;3.20;2.90;;;25.10;62.70;;;;;;5055901;28;20400;-68
2021/07/29 11:59:46;;;;;;;3.93;2.63;;;25.10;64.80;;;;;;5055320;28;20414;-68
2021/07/29 12:02:12;;;;;;;4.33;3.93;;;25.40;66.10;;;;;;5056141;28;20170;-68
2021/07/29 12:04:39;;;;;;;5.27;3.00;;;25.50;65.30;;;;;;5054571;28;20440;-69
2021/07/29 12:07:06;;;;;;;3.20;3.00;;;25.50;62.80;;;;;;5054822;28;20391;-68
2021/07/29 12:09:33;;;;;;;4.07;3.10;;;25.30;63.70;;;;;;5055054;28;20443;-68
2021/07/29 12:12:01;;;;;;;3.90;2.87;;;24.60;63.50;;;;;;5055419;28;20768;-68
2021/07/29 12:14:27;;;;;;;3.00;2.70;;;24.50;66.70;;;;;;5053602;28;20411;-67
2021/07/29 12:16:54;;;;;;;5.93;3.00;;;24.40;64.50;;;;;;5055876;28;20708;-68
2021/07/29 12:19:21;;;;;;;2.90;2.70;;;24.50;67.40;;;;;;5055732;28;20432;-69
2021/07/29 12:21:48;;;;;;;4.10;2.70;;;24.70;69.30;;;;;;5054663;28;20391;-68
2021/07/29 12:24:14;;;;;;;4.33;3.40;;;24.60;64.50;;;;;;5055129;28;20401;-68
2021/07/29 12:26:41;;;;;;;4.43;2.93;;;24.60;65.20;;;;;;5055328;28;20371;-69
2021/07/29 12:29:07;;;;;;;6.13;3.03;;;24.70;64.00;;;;;;5055124;28;20470;-69
2021/07/29 12:31:33;;;;;;;3.60;3.30;;;24.80;65.30;;;;;;5055533;28;20382;-69
2021/07/29 12:34:04;;;;;;;3.40;3.00;;;24.90;67.50;;;;;;5055133;28;20408;-68
2021/07/29 12:36:47;;;;;;;3.57;3.13;;;24.90;67.60;;;;;;5055150;28;20284;-68
2021/07/29 12:39:15;;;;;;;3.60;2.70;;;25.00;65.10;;;;;;5055149;28;20508;-69
2021/07/29 12:41:42;;;;;;;4.13;2.97;;;24.90;63.50;;;;;;5055545;28;20412;-67
2021/07/29 12:44:21;;;;;;;7.13;3.00;;;24.50;66.00;;;;;;5053645;28;20897;-69
2021/07/29 12:46:48;;;;;;;3.80;3.17;;;24.70;65.50;;;;;;5055234;28;20460;-70
2021/07/29 12:49:16;;;;;;;2.97;2.57;;;24.80;65.00;;;;;;5054914;28;20483;-67
2021/07/29 12:51:45;;;;;;;3.50;2.70;;;24.20;62.90;;;;;;5053186;28;20898;-69